Time;durP1;ratioP1;P1;durP2;ratioP2;P2;SDS_P1;SDS_P2;PMS_P1;PMS_P2;Temp;Humidity;BMP_temperature;BMP_pressure;BME280_temperature;BME280_humidity;BME280_pressure;Samples;Min_cycle;Max_cycle;Signal;HPM_P1;HPM_P2
2024/01/15 00:01:37;;;;;;;18.20;11.50;;;;;;;0.86;100.00;98930.41;5053821;28;20205;-73
2024/01/15 00:04:06;;;;;;;16.50;11.57;;;;;;;0.87;100.00;98939.16;5054752;28;20232;-73
2024/01/15 00:06:34;;;;;;;18.13;11.93;;;;;;;0.83;100.00;98932.50;5054808;28;20257;-73
2024/01/15 00:09:03;;;;;;;20.00;12.13;;;;;;;0.81;100.00;98926.56;5054739;28;20210;-73
2024/01/15 00:11:31;;;;;;;17.50;11.63;;;;;;;0.83;100.00;98924.59;5054649;28;20216;-73
2024/01/15 00:14:00;;;;;;;17.67;12.23;;;;;;;0.81;100.00;98930.03;5054279;28;20703;-73
2024/01/15 00:16:30;;;;;;;19.63;12.23;;;;;;;0.82;100.00;98928.22;5054609;28;20217;-73
2024/01/15 00:18:58;;;;;;;19.37;11.90;;;;;;;0.80;100.00;98923.09;5054429;28;20313;-73
2024/01/15 00:21:27;;;;;;;17.27;10.90;;;;;;;0.79;100.00;98923.22;5054453;28;20237;-73
2024/01/15 00:23:56;;;;;;;15.70;11.17;;;;;;;0.82;100.00;98931.66;5054512;28;20335;-73
2024/01/15 00:26:24;;;;;;;17.80;10.73;;;;;;;0.84;100.00;98921.84;5054410;28;20205;-73
2024/01/15 00:28:53;;;;;;;16.27;10.83;;;;;;;0.86;100.00;98913.78;5054346;28;20202;-73
2024/01/15 00:31:21;;;;;;;16.97;10.90;;;;;;;0.82;100.00;98912.41;5054041;28;20563;-73
2024/01/15 00:33:52;;;;;;;16.13;10.37;;;;;;;0.81;100.00;98906.31;5054192;28;20222;-73
2024/01/15 00:36:21;;;;;;;14.93;9.40;;;;;;;0.82;100.00;98917.69;5053851;28;20217;-73
2024/01/15 00:38:49;;;;;;;15.93;9.73;;;;;;;0.81;100.00;98916.84;5054114;28;20233;-73
2024/01/15 00:41:18;;;;;;;15.77;8.30;;;;;;;0.84;100.00;98910.47;5053806;28;20210;-73
2024/01/15 00:43:48;;;;;;;15.50;9.20;;;;;;;0.82;100.00;98896.63;5053729;28;20320;-73
2024/01/15 00:46:17;;;;;;;14.33;8.53;;;;;;;0.80;100.00;98898.53;5053775;28;20186;-73
2024/01/15 00:48:46;;;;;;;14.43;7.80;;;;;;;0.81;100.00;98885.25;5054016;28;20249;-73
2024/01/15 00:51:17;;;;;;;14.40;8.53;;;;;;;0.78;100.00;98880.28;5053938;28;20202;-73
2024/01/15 00:53:45;;;;;;;14.37;8.30;;;;;;;0.75;100.00;98885.81;5053870;28;20226;-73
2024/01/15 00:56:13;;;;;;;13.70;7.83;;;;;;;0.73;100.00;98881.66;5053895;28;20638;-73
2024/01/15 00:58:42;;;;;;;14.77;7.53;;;;;;;0.71;100.00;98883.63;5053741;28;20305;-73
2024/01/15 01:01:10;;;;;;;16.00;8.30;;;;;;;0.68;100.00;98878.63;5053799;28;20289;-73
2024/01/15 01:03:39;;;;;;;14.90;7.83;;;;;;;0.68;100.00;98874.19;5053693;28;20269;-73
2024/01/15 01:06:08;;;;;;;13.43;7.80;;;;;;;0.69;100.00;98875.84;5053721;28;20206;-73
2024/01/15 01:08:37;;;;;;;13.63;8.13;;;;;;;0.68;100.00;98876.84;5053669;28;20264;-73
2024/01/15 01:11:06;;;;;;;12.07;7.63;;;;;;;0.70;100.00;98874.88;5053668;28;20248;-73
2024/01/15 01:13:35;;;;;;;10.53;7.17;;;;;;;0.71;100.00;98878.34;5053249;28;20232;-73
2024/01/15 01:16:04;;;;;;;13.40;7.53;;;;;;;0.69;100.00;98875.00;5053570;28;20264;-73
2024/01/15 01:18:32;;;;;;;14.40;7.47;;;;;;;0.66;100.00;98873.50;5053581;28;20210;-73
2024/01/15 01:21:01;;;;;;;14.37;8.07;;;;;;;0.66;100.00;98876.13;5053424;28;20333;-73
2024/01/15 01:23:29;;;;;;;15.33;7.63;;;;;;;0.67;100.00;98876.97;5053424;28;20325;-73
2024/01/15 01:25:59;;;;;;;12.73;7.33;;;;;;;0.66;100.00;98873.50;5053182;28;20206;-73
2024/01/15 01:28:28;;;;;;;10.83;6.77;;;;;;;0.70;100.00;98860.88;5053722;28;20289;-73
2024/01/15 01:30:56;;;;;;;15.87;7.23;;;;;;;0.68;100.00;98871.56;5053388;28;20203;-73
2024/01/15 01:33:25;;;;;;;13.37;6.70;;;;;;;0.70;100.00;98872.25;5053295;28;20237;-73
2024/01/15 01:35:54;;;;;;;10.87;6.20;;;;;;;0.69;100.00;98870.56;5052964;28;20214;-73
2024/01/15 01:38:22;;;;;;;15.47;6.80;;;;;;;0.70;100.00;98866.97;5053302;28;20336;-73
2024/01/15 01:40:51;;;;;;;11.83;6.40;;;;;;;0.69;100.00;98864.47;5053283;28;20268;-73
2024/01/15 01:43:20;;;;;;;12.50;6.40;;;;;;;0.71;100.00;98867.81;5053214;28;20312;-73
2024/01/15 01:45:49;;;;;;;13.53;6.20;;;;;;;0.68;100.00;98863.66;5053338;28;20630;-73
2024/01/15 01:48:18;;;;;;;14.80;5.67;;;;;;;0.69;100.00;98861.84;5053277;28;20202;-73
2024/01/15 01:50:46;;;;;;;12.03;5.03;;;;;;;0.66;100.00;98847.16;5053205;28;20206;-73
2024/01/15 01:53:15;;;;;;;17.20;5.47;;;;;;;0.71;100.00;98852.00;5053103;28;20221;-73
2024/01/15 01:55:44;;;;;;;14.83;5.30;;;;;;;0.68;100.00;98839.97;5053134;28;20206;-73
2024/01/15 01:58:12;;;;;;;13.97;4.60;;;;;;;0.67;100.00;98861.16;5053177;28;20202;-73
2024/01/15 02:00:42;;;;;;;13.53;4.77;;;;;;;0.67;100.00;98862.00;5053043;28;20309;-73
2024/01/15 02:03:11;;;;;;;8.73;4.07;;;;;;;0.71;100.00;98850.22;5053036;28;20226;-73
2024/01/15 02:05:41;;;;;;;13.20;4.37;;;;;;;0.71;100.00;98867.81;5053054;28;20210;-73
2024/01/15 02:08:10;;;;;;;13.80;3.83;;;;;;;0.72;100.00;98837.88;5052727;28;20629;-73
2024/01/15 02:10:38;;;;;;;9.03;4.00;;;;;;;0.76;100.00;98833.94;5053034;28;20230;-73
2024/01/15 02:13:07;;;;;;;11.03;4.23;;;;;;;0.77;100.00;98835.63;5052952;28;20229;-73
2024/01/15 02:15:35;;;;;;;14.27;3.97;;;;;;;0.78;100.00;98845.19;5052968;28;20297;-73
2024/01/15 02:18:07;;;;;;;11.10;3.50;;;;;;;0.83;100.00;98829.75;5052955;28;20213;-73
2024/01/15 02:20:36;;;;;;;14.43;4.27;;;;;;;0.83;100.00;98829.75;5052904;28;20206;-73
2024/01/15 02:23:11;;;;;;;11.93;4.00;;;;;;;0.84;100.00;98828.81;5052845;28;20229;-74
2024/01/15 02:25:40;;;;;;;13.27;3.40;;;;;;;0.87;100.00;98823.25;5055823;28;20190;-74
2024/01/15 02:28:11;;;;;;;14.70;4.07;;;;;;;0.89;100.00;98813.41;5056381;28;20672;-74
2024/01/15 02:30:41;;;;;;;8.27;3.40;;;;;;;0.93;100.00;98825.28;5056646;28;20191;-74
2024/01/15 02:33:11;;;;;;;9.53;3.70;;;;;;;0.95;100.00;98833.88;5056571;28;20261;-73
2024/01/15 02:35:40;;;;;;;12.13;4.40;;;;;;;0.97;100.00;98821.38;5056241;28;20213;-74
2024/01/15 02:38:10;;;;;;;14.13;4.20;;;;;;;0.98;100.00;98817.78;5056186;28;20301;-74
2024/01/15 02:40:40;;;;;;;12.03;3.67;;;;;;;0.99;100.00;98814.97;5056327;28;20759;-74
2024/01/15 02:43:08;;;;;;;14.00;3.37;;;;;;;0.99;100.00;98814.19;5056332;28;20237;-74
2024/01/15 02:45:36;;;;;;;9.47;3.37;;;;;;;0.97;100.00;98802.94;5056411;28;20296;-74
2024/01/15 02:48:05;;;;;;;15.43;3.87;;;;;;;0.96;100.00;98814.44;5056311;28;20292;-74
2024/01/15 02:50:34;;;;;;;11.43;3.50;;;;;;;0.96;100.00;98803.91;5055924;28;20205;-74
2024/01/15 02:53:02;;;;;;;10.90;3.27;;;;;;;0.96;100.00;98793.38;5056146;28;20264;-74
2024/01/15 02:55:32;;;;;;;12.17;3.77;;;;;;;0.98;100.00;98807.25;5056425;28;20302;-74
2024/01/15 02:58:01;;;;;;;16.87;3.53;;;;;;;0.98;100.00;98801.97;5056355;28;20206;-74
2024/01/15 03:00:29;;;;;;;11.63;3.57;;;;;;;0.98;100.00;98796.69;5056014;28;20232;-74
2024/01/15 03:02:58;;;;;;;7.33;2.63;;;;;;;1.00;100.00;98800.00;5055965;28;20356;-73
2024/01/15 03:05:26;;;;;;;12.80;3.23;;;;;;;0.98;100.00;98807.25;5055950;28;20203;-73
2024/01/15 03:07:55;;;;;;;7.53;2.90;;;;;;;0.98;100.00;98807.25;5055889;28;20635;-73
2024/01/15 03:10:23;;;;;;;8.43;2.63;;;;;;;0.99;100.00;98793.09;5055601;28;20293;-73
2024/01/15 03:12:53;;;;;;;12.30;2.60;;;;;;;1.00;100.00;98807.91;5055764;28;20248;-73
2024/01/15 03:15:21;;;;;;;14.87;3.43;;;;;;;0.99;100.00;98811.53;5055815;28;20210;-73
2024/01/15 03:17:50;;;;;;;11.07;2.80;;;;;;;0.99;100.00;98814.19;5055760;28;20206;-73
2024/01/15 03:20:18;;;;;;;16.30;3.47;;;;;;;1.00;100.00;98821.91;5055634;28;20221;-73
2024/01/15 03:22:47;;;;;;;13.63;3.27;;;;;;;0.99;100.00;98819.44;5055574;28;20258;-73
2024/01/15 03:25:15;;;;;;;14.57;3.10;;;;;;;0.98;100.00;98812.50;5055309;28;20578;-73
2024/01/15 03:27:44;;;;;;;12.13;3.03;;;;;;;0.99;100.00;98803.66;5055577;28;20210;-74
2024/01/15 03:30:15;;;;;;;9.53;2.67;;;;;;;1.01;100.00;98812.22;5055220;28;20572;-74
2024/01/15 03:32:43;;;;;;;11.83;3.20;;;;;;;1.00;100.00;98807.91;5055180;28;20233;-74
2024/01/15 03:35:12;;;;;;;7.00;2.40;;;;;;;0.99;100.00;98798.38;5055025;28;20730;-73
2024/01/15 03:37:41;;;;;;;8.10;2.40;;;;;;;1.02;100.00;98819.16;5055357;28;20202;-74
2024/01/15 03:40:10;;;;;;;8.60;2.57;;;;;;;1.01;100.00;98817.50;5055517;28;20248;-74
2024/01/15 03:42:39;;;;;;;8.87;2.33;;;;;;;1.00;100.00;98824.56;5055231;28;20226;-74
2024/01/15 03:45:08;;;;;;;6.53;2.20;;;;;;;1.00;100.00;98824.56;5054906;28;20554;-74
2024/01/15 03:47:38;;;;;;;11.00;2.20;;;;;;;0.99;100.00;98830.00;5055175;28;20209;-74
2024/01/15 03:50:07;;;;;;;9.87;2.60;;;;;;;0.93;100.00;98839.28;5055120;28;20210;-75
2024/01/15 03:52:35;;;;;;;6.70;2.10;;;;;;;0.88;100.00;98823.09;5055217;28;20316;-74
2024/01/15 03:55:05;;;;;;;11.40;2.37;;;;;;;0.87;100.00;98825.88;5055065;28;20205;-74
2024/01/15 03:57:33;;;;;;;11.93;2.80;;;;;;;0.90;100.00;98826.41;5055247;28;20297;-74
2024/01/15 04:00:02;;;;;;;10.77;2.60;;;;;;;0.91;100.00;98829.88;5054948;28;20210;-74
2024/01/15 04:02:31;;;;;;;9.27;2.20;;;;;;;0.94;100.00;98826.94;5054786;28;20264;-74
2024/01/15 04:05:01;;;;;;;9.77;2.00;;;;;;;0.94;100.00;98819.03;5054825;28;20217;-74
2024/01/15 04:07:30;;;;;;;9.37;2.33;;;;;;;0.95;100.00;98823.34;5055078;28;20206;-74
2024/01/15 04:09:59;;;;;;;11.50;2.40;;;;;;;0.97;100.00;98813.47;5054761;28;20298;-74
2024/01/15 04:12:28;;;;;;;9.97;2.40;;;;;;;0.96;100.00;98819.72;5054610;28;20313;-74
2024/01/15 04:14:56;;;;;;;10.83;2.40;;;;;;;0.99;100.00;98814.19;5054673;28;20209;-75
2024/01/15 04:17:25;;;;;;;10.97;2.33;;;;;;;1.01;100.00;98822.75;5054584;28;20297;-75
2024/01/15 04:19:53;;;;;;;6.37;2.17;;;;;;;1.03;100.00;98805.81;5054455;28;20206;-75
2024/01/15 04:22:23;;;;;;;12.87;2.40;;;;;;;1.03;100.00;98807.63;5054281;28;20234;-74
2024/01/15 04:24:52;;;;;;;6.43;2.30;;;;;;;1.05;100.00;98818.84;5054471;28;20202;-74
2024/01/15 04:27:21;;;;;;;12.07;2.47;;;;;;;1.03;100.00;98820.78;5054134;28;20616;-74
2024/01/15 04:29:49;;;;;;;10.10;2.90;;;;;;;1.01;100.00;98822.75;5054417;28;20206;-74
2024/01/15 04:32:18;;;;;;;12.97;2.77;;;;;;;0.99;100.00;98814.19;5054217;28;20222;-74
2024/01/15 04:34:46;;;;;;;7.70;2.70;;;;;;;0.96;100.00;98810.00;5054046;28;20249;-74
2024/01/15 04:37:15;;;;;;;12.97;2.23;;;;;;;0.97;100.00;98821.38;5054252;28;20240;-74
2024/01/15 04:39:45;;;;;;;11.43;2.20;;;;;;;0.97;100.00;98805.56;5054450;28;20300;-74
2024/01/15 04:42:14;;;;;;;13.37;2.83;;;;;;;0.96;100.00;98820.56;5054024;28;20226;-74
2024/01/15 04:44:42;;;;;;;7.50;2.80;;;;;;;0.97;100.00;98816.13;5053806;28;20738;-74
2024/01/15 04:47:11;;;;;;;10.40;3.03;;;;;;;0.95;100.00;98812.81;5053532;28;20296;-74
2024/01/15 04:49:39;;;;;;;9.40;2.20;;;;;;;0.90;100.00;98815.88;5053981;28;20202;-74
2024/01/15 04:52:10;;;;;;;12.80;2.90;;;;;;;0.89;100.00;98826.56;5053917;28;20198;-74
2024/01/15 04:54:38;;;;;;;10.53;2.40;;;;;;;0.80;100.00;98814.25;5053949;28;20218;-74
2024/01/15 04:57:08;;;;;;;10.80;3.07;;;;;;;0.76;100.00;98828.69;5053895;28;20210;-74
2024/01/15 04:59:37;;;;;;;10.23;2.37;;;;;;;0.75;100.00;98827.06;5053795;28;20206;-74
2024/01/15 05:02:05;;;;;;;12.63;2.70;;;;;;;0.75;100.00;98822.63;5053647;28;20319;-74
2024/01/15 05:04:33;;;;;;;7.57;2.50;;;;;;;0.76;100.00;98818.16;5053775;28;20297;-74
2024/01/15 05:07:02;;;;;;;13.57;2.73;;;;;;;0.76;100.00;98812.88;5053697;28;20259;-74
2024/01/15 05:09:31;;;;;;;10.43;2.63;;;;;;;0.76;100.00;98804.97;5053405;28;20746;-74
2024/01/15 05:12:00;;;;;;;9.13;2.50;;;;;;;0.76;100.00;98786.53;5053608;28;20198;-74
2024/01/15 05:14:30;;;;;;;8.60;2.37;;;;;;;0.77;100.00;98790.84;5053621;28;20210;-74
2024/01/15 05:16:59;;;;;;;11.67;2.60;;;;;;;0.78;100.00;98797.78;5053588;28;20202;-74
2024/01/15 05:19:27;;;;;;;7.67;2.10;;;;;;;0.80;100.00;98795.81;5053595;28;20206;-74
2024/01/15 05:21:56;;;;;;;8.93;2.13;;;;;;;0.82;100.00;98801.78;5053354;28;20320;-74
2024/01/15 05:24:26;;;;;;;6.87;2.30;;;;;;;0.82;100.00;98799.16;5053177;28;20638;-74
2024/01/15 05:26:54;;;;;;;10.63;2.80;;;;;;;0.83;100.00;98795.53;5053478;28;20217;-74
2024/01/15 05:29:23;;;;;;;10.07;2.30;;;;;;;0.82;100.00;98799.16;5053496;28;20233;-74
2024/01/15 05:31:53;;;;;;;10.80;2.27;;;;;;;0.83;100.00;98795.53;5053338;28;20268;-75
2024/01/15 05:34:21;;;;;;;11.93;2.50;;;;;;;0.80;100.00;98782.66;5053245;28;20249;-74
2024/01/15 05:36:50;;;;;;;8.43;2.43;;;;;;;0.81;100.00;98779.06;5053327;28;20194;-74
2024/01/15 05:39:19;;;;;;;11.83;2.70;;;;;;;0.81;100.00;98785.16;5053394;28;20210;-75
2024/01/15 05:41:51;;;;;;;7.50;2.50;;;;;;;0.81;100.00;98794.84;5052469;28;20210;-74
2024/01/15 05:44:19;;;;;;;9.67;2.47;;;;;;;0.82;100.00;98788.63;5052340;28;20317;-74
2024/01/15 05:46:48;;;;;;;10.90;2.60;;;;;;;0.83;100.00;98787.63;5053473;28;20297;-74
2024/01/15 05:49:17;;;;;;;12.27;2.73;;;;;;;0.84;100.00;98798.03;5052839;28;20212;-74
2024/01/15 05:51:46;;;;;;;10.30;2.73;;;;;;;0.83;100.00;98785.00;5051955;28;20212;-74
2024/01/15 05:54:15;;;;;;;9.70;2.37;;;;;;;0.85;100.00;98793.59;5052802;28;20715;-74
2024/01/15 05:56:43;;;;;;;9.87;2.70;;;;;;;0.89;100.00;98802.88;5053155;28;20210;-74
2024/01/15 05:59:11;;;;;;;7.77;2.70;;;;;;;0.88;100.00;98796.75;5053744;28;20297;-74
2024/01/15 06:01:43;;;;;;;7.67;2.17;;;;;;;0.89;100.00;98792.31;5057159;28;20579;-74
2024/01/15 06:04:11;;;;;;;15.13;2.47;;;;;;;0.91;100.00;98796.47;5057044;28;20312;-74
2024/01/15 06:06:41;;;;;;;7.67;2.40;;;;;;;0.87;100.00;98791.63;5057044;28;20206;-74
2024/01/15 06:09:10;;;;;;;7.97;2.47;;;;;;;0.88;100.00;98795.94;5057004;28;20210;-74
2024/01/15 06:11:38;;;;;;;15.53;3.23;;;;;;;0.86;100.00;98796.06;5056925;28;20205;-74
2024/01/15 06:14:07;;;;;;;8.93;2.97;;;;;;;0.86;100.00;98788.16;5056819;28;20234;-74
2024/01/15 06:16:35;;;;;;;9.90;2.20;;;;;;;0.86;100.00;98785.53;5057040;28;20297;-76
2024/01/15 06:19:04;;;;;;;9.67;2.20;;;;;;;0.80;100.00;98793.19;5056870;28;20214;-76
2024/01/15 06:21:33;;;;;;;11.40;2.47;;;;;;;0.79;100.00;98802.88;5056417;28;20739;-75
2024/01/15 06:24:03;;;;;;;6.23;2.07;;;;;;;0.76;100.00;98804.97;5056686;28;20253;-74
2024/01/15 06:26:31;;;;;;;9.50;2.60;;;;;;;0.75;100.00;98793.66;5057065;28;20209;-75
2024/01/15 06:29:00;;;;;;;6.13;2.43;;;;;;;0.74;100.00;98799.03;5056683;28;20283;-75
2024/01/15 06:31:28;;;;;;;6.50;2.67;;;;;;;0.75;100.00;98800.72;5056637;28;20285;-74
2024/01/15 06:33:57;;;;;;;9.23;2.73;;;;;;;0.71;100.00;98804.59;5056544;28;20268;-74
2024/01/15 06:36:26;;;;;;;8.83;2.73;;;;;;;0.71;100.00;98815.97;5056833;28;20297;-74
2024/01/15 06:38:54;;;;;;;11.73;2.43;;;;;;;0.71;100.00;98804.59;5056524;28;20206;-74
2024/01/15 06:41:25;;;;;;;8.23;2.37;;;;;;;0.72;100.00;98808.91;5056490;28;20297;-75
2024/01/15 06:43:53;;;;;;;9.60;2.40;;;;;;;0.74;100.00;98810.41;5056009;28;20598;-74
2024/01/15 06:46:22;;;;;;;12.87;2.90;;;;;;;0.74;100.00;98799.03;5056387;28;20297;-74
2024/01/15 06:48:51;;;;;;;8.23;2.67;;;;;;;0.73;100.00;98798.22;5055980;28;20621;-74
2024/01/15 06:51:19;;;;;;;9.53;3.53;;;;;;;0.73;100.00;98803.47;5056292;28;20305;-75
2024/01/15 06:53:48;;;;;;;11.53;3.23;;;;;;;0.73;100.00;98802.66;5056169;28;20226;-75
2024/01/15 06:56:16;;;;;;;9.97;2.50;;;;;;;0.74;100.00;98806.94;5056199;28;20550;-75
2024/01/15 06:58:46;;;;;;;11.30;2.90;;;;;;;0.76;100.00;98805.81;5055872;28;20665;-74
2024/01/15 07:01:15;;;;;;;11.87;2.87;;;;;;;0.76;100.00;98812.88;5056327;28;20252;-75
2024/01/15 07:03:44;;;;;;;13.70;3.03;;;;;;;0.77;100.00;98809.28;5055891;28;20257;-75
2024/01/15 07:06:12;;;;;;;14.07;3.50;;;;;;;0.74;100.00;98818.31;5055672;28;20740;-75
2024/01/15 07:08:41;;;;;;;8.80;2.90;;;;;;;0.76;100.00;98812.88;5056182;28;20202;-75
2024/01/15 07:11:10;;;;;;;7.43;2.60;;;;;;;0.78;100.00;98813.59;5055374;28;20206;-75
2024/01/15 07:13:38;;;;;;;8.80;2.60;;;;;;;0.78;100.00;98808.31;5055819;28;20309;-75
2024/01/15 07:16:08;;;;;;;6.73;2.73;;;;;;;0.81;100.00;98800.13;5055839;28;20252;-74
2024/01/15 07:18:37;;;;;;;12.70;2.90;;;;;;;0.83;100.00;98808.69;5055775;28;20678;-74
2024/01/15 07:21:06;;;;;;;13.10;2.60;;;;;;;0.84;100.00;98805.09;5055963;28;20288;-75
2024/01/15 07:23:34;;;;;;;9.40;2.20;;;;;;;0.84;100.00;98810.38;5055537;28;20316;-75
2024/01/15 07:26:03;;;;;;;8.53;2.57;;;;;;;0.86;100.00;98811.03;5055303;28;20567;-75
2024/01/15 07:28:31;;;;;;;8.00;2.90;;;;;;;0.87;100.00;98810.91;5055255;28;20242;-75
2024/01/15 07:31:01;;;;;;;11.13;3.07;;;;;;;0.90;100.00;98820.31;5055492;28;20237;-75
2024/01/15 07:33:31;;;;;;;12.03;2.77;;;;;;;0.91;100.00;98816.72;5055429;28;20283;-74
2024/01/15 07:35:59;;;;;;;8.10;2.80;;;;;;;0.91;100.00;98811.44;5055101;28;20312;-75
2024/01/15 07:38:31;;;;;;;11.43;3.90;;;;;;;0.93;100.00;98820.00;5055416;28;20190;-75
2024/01/15 07:40:59;;;;;;;7.60;2.50;;;;;;;0.91;100.00;98821.97;5055596;28;20218;-75
2024/01/15 07:43:28;;;;;;;7.73;2.50;;;;;;;0.90;100.00;98834.31;5055161;28;20226;-75
2024/01/15 07:45:58;;;;;;;7.90;2.67;;;;;;;0.88;100.00;98827.53;5055239;28;20296;-75
2024/01/15 07:48:27;;;;;;;6.70;2.40;;;;;;;0.85;100.00;98839.22;5055230;28;20206;-75
2024/01/15 07:50:57;;;;;;;7.13;3.13;;;;;;;0.88;100.00;98838.09;5055177;28;20206;-75
2024/01/15 07:53:25;;;;;;;10.30;3.33;;;;;;;0.84;100.00;98827.00;5055051;28;20313;-75
2024/01/15 07:55:54;;;;;;;11.53;3.50;;;;;;;0.82;100.00;98830.75;5055609;28;20301;-75
2024/01/15 07:58:22;;;;;;;13.20;4.30;;;;;;;0.79;100.00;98817.84;5055022;28;20297;-75
2024/01/15 08:00:51;;;;;;;7.80;3.23;;;;;;;0.80;100.00;98824.78;5054958;28;20202;-75
2024/01/15 08:03:20;;;;;;;11.00;3.20;;;;;;;0.83;100.00;98835.88;5054813;28;20230;-75
2024/01/15 08:05:52;;;;;;;13.60;3.83;;;;;;;0.80;100.00;98832.69;5054603;28;20212;-75
2024/01/15 08:08:23;;;;;;;8.83;3.57;;;;;;;0.84;100.00;98840.16;5054566;28;20569;-75
2024/01/15 08:10:51;;;;;;;9.87;3.10;;;;;;;0.83;100.00;98835.03;5054460;28;20656;-75
2024/01/15 08:13:20;;;;;;;8.73;3.53;;;;;;;0.80;100.00;98836.16;5054658;28;20313;-75
2024/01/15 08:15:50;;;;;;;11.40;4.17;;;;;;;0.79;100.00;98828.38;5054413;28;20269;-75
2024/01/15 08:18:18;;;;;;;11.80;3.47;;;;;;;0.79;100.00;98829.22;5054325;28;20778;-75
2024/01/15 08:20:47;;;;;;;10.07;3.67;;;;;;;0.75;100.00;98843.69;5054636;28;20209;-75
2024/01/15 08:23:15;;;;;;;8.77;3.40;;;;;;;0.78;100.00;98840.75;5053530;28;20321;-75
2024/01/15 08:25:45;;;;;;;6.30;4.00;;;;;;;0.77;100.00;98833.81;5054499;28;20202;-75
2024/01/15 08:28:14;;;;;;;7.63;3.57;;;;;;;0.75;100.00;98837.59;5054450;28;20302;-75
2024/01/15 08:30:42;;;;;;;8.10;4.13;;;;;;;0.71;100.00;98846.75;5054401;28;20236;-75
2024/01/15 08:33:11;;;;;;;8.70;3.70;;;;;;;0.70;100.00;98848.53;5053956;28;20257;-75
2024/01/15 08:35:49;;;;;;;10.90;4.20;;;;;;;0.64;100.00;98848.28;5054177;28;20248;-75
2024/01/15 08:38:18;;;;;;;9.93;3.63;;;;;;;0.64;100.00;98851.75;5054283;28;20597;-75
2024/01/15 08:40:49;;;;;;;9.97;3.43;;;;;;;0.66;100.00;98855.06;5054258;28;20550;-75
2024/01/15 08:43:17;;;;;;;7.37;3.50;;;;;;;0.63;100.00;98851.88;5054122;28;20273;-75
2024/01/15 08:45:47;;;;;;;5.93;3.53;;;;;;;0.62;100.00;98855.50;5053827;28;20206;-75
2024/01/15 08:48:16;;;;;;;9.53;3.37;;;;;;;0.63;100.00;98851.88;5053755;28;20296;-75
2024/01/15 08:50:45;;;;;;;11.77;3.57;;;;;;;0.61;100.00;98856.47;5054066;28;20240;-75
2024/01/15 08:53:14;;;;;;;9.57;3.20;;;;;;;0.65;100.00;98852.59;5053910;28;20308;-75
2024/01/15 08:55:44;;;;;;;10.53;3.43;;;;;;;0.66;100.00;98867.41;5053644;28;20686;-75
2024/01/15 08:58:14;;;;;;;8.20;3.80;;;;;;;0.69;100.00;98843.41;5053899;28;20233;-75
2024/01/15 09:00:42;;;;;;;8.77;3.63;;;;;;;0.69;100.00;98859.22;5053855;28;20206;-75
2024/01/15 09:03:11;;;;;;;10.73;3.90;;;;;;;0.69;100.00;98851.31;5053661;28;20316;-75
2024/01/15 09:05:40;;;;;;;9.20;3.07;;;;;;;0.70;100.00;98842.44;5053954;28;20217;-75
2024/01/15 09:08:09;;;;;;;4.90;2.57;;;;;;;0.75;100.00;98858.66;5053904;28;20297;-74
2024/01/15 09:10:38;;;;;;;7.70;2.70;;;;;;;0.82;100.00;98851.84;5053361;28;20652;-75
2024/01/15 09:13:06;;;;;;;8.33;2.97;;;;;;;0.82;100.00;98855.28;5053721;28;20313;-71
2024/01/15 09:15:36;;;;;;;9.00;3.10;;;;;;;0.84;100.00;98855.16;5053585;28;20207;-71
2024/01/15 09:18:05;;;;;;;14.33;3.33;;;;;;;0.83;100.00;98853.47;5053516;28;20209;-70
2024/01/15 09:20:36;;;;;;;11.10;2.90;;;;;;;0.88;100.00;98859.16;5053535;28;20269;-70
2024/01/15 09:23:04;;;;;;;7.37;2.83;;;;;;;0.86;100.00;98854.00;5053613;28;20257;-70
2024/01/15 09:25:33;;;;;;;12.97;3.40;;;;;;;0.88;100.00;98861.78;5053428;28;20285;-71
2024/01/15 09:28:02;;;;;;;7.03;2.50;;;;;;;0.93;100.00;98859.53;5053353;28;20677;-71
2024/01/15 09:30:30;;;;;;;8.00;2.70;;;;;;;0.94;100.00;98863.84;5053388;28;20202;-71
2024/01/15 09:33:00;;;;;;;9.27;3.17;;;;;;;0.95;100.00;98862.88;5053118;28;20258;-71
2024/01/15 09:35:29;;;;;;;7.53;3.07;;;;;;;0.95;100.00;98855.81;5052902;28;20633;-70
2024/01/15 09:37:57;;;;;;;7.03;2.77;;;;;;;0.97;100.00;98858.28;5053285;28;20300;-70
2024/01/15 09:40:31;;;;;;;10.43;3.10;;;;;;;0.97;100.00;98868.81;5053857;28;20233;-70
2024/01/15 09:43:00;;;;;;;8.37;3.33;;;;;;;0.99;100.00;98869.50;5052905;28;20730;-70
2024/01/15 09:45:30;;;;;;;14.43;3.20;;;;;;;1.01;100.00;98867.56;5053160;28;20222;-70
2024/01/15 09:48:00;;;;;;;13.43;3.03;;;;;;;1.06;100.00;98877.66;5053167;28;20210;-70
2024/01/15 09:50:29;;;;;;;14.20;3.07;;;;;;;1.07;100.00;98869.59;5053247;28;20202;-71
2024/01/15 09:52:58;;;;;;;8.50;2.97;;;;;;;1.12;100.00;98883.19;5053091;28;20222;-70
2024/01/15 09:55:27;;;;;;;9.03;2.70;;;;;;;1.13;100.00;98873.47;5053146;28;20233;-70
2024/01/15 09:57:58;;;;;;;12.07;3.07;;;;;;;1.17;100.00;98870.38;5053103;28;20259;-70
2024/01/15 10:00:28;;;;;;;11.00;3.30;;;;;;;1.21;100.00;98876.19;5053138;28;20190;-70
2024/01/15 10:02:57;;;;;;;10.73;3.00;;;;;;;1.23;100.00;98874.25;5052729;28;20264;-70
2024/01/15 10:05:27;;;;;;;9.70;3.00;;;;;;;1.23;100.00;98869.81;5052691;28;20771;-70
2024/01/15 10:07:58;;;;;;;5.47;2.70;;;;;;;1.23;100.00;98874.25;5053016;28;20206;-70
2024/01/15 10:10:27;;;;;;;8.90;2.80;;;;;;;1.24;100.00;98884.63;5052762;28;20187;-71
2024/01/15 10:12:57;;;;;;;6.30;2.70;;;;;;;1.25;100.00;98861.75;5052944;28;20312;-70
2024/01/15 10:15:26;;;;;;;14.80;3.10;;;;;;;1.27;100.00;98883.50;5053260;28;20213;-71
2024/01/15 10:17:55;;;;;;;10.47;3.47;;;;;;;1.25;100.00;98883.66;5052963;28;20210;-71
2024/01/15 10:20:24;;;;;;;7.13;3.20;;;;;;;1.24;100.00;98875.88;5052915;28;20263;-70
2024/01/15 10:22:54;;;;;;;10.70;3.60;;;;;;;1.25;100.00;98888.09;5052532;28;20671;-70
2024/01/15 10:25:25;;;;;;;7.00;3.37;;;;;;;1.25;100.00;98888.94;5052519;28;20214;-70
2024/01/15 10:28:02;;;;;;;8.73;3.10;;;;;;;1.25;100.00;98873.13;5052587;28;20647;-71
2024/01/15 10:30:30;;;;;;;6.30;2.70;;;;;;;1.28;100.00;98877.25;5052548;28;20636;-70
2024/01/15 10:33:01;;;;;;;8.43;3.10;;;;;;;1.29;100.00;98885.03;5052760;28;20226;-70
2024/01/15 10:35:31;;;;;;;5.77;2.97;;;;;;;1.27;100.00;98876.44;5052437;28;20210;-70
2024/01/15 10:38:02;;;;;;;10.37;2.50;;;;;;;1.24;100.00;98878.53;5053151;28;20190;-69
2024/01/15 10:40:31;;;;;;;7.87;3.20;;;;;;;1.17;100.00;98875.66;5053009;28;20269;-70
2024/01/15 10:42:59;;;;;;;7.00;3.10;;;;;;;1.10;100.00;98882.47;5052612;28;20226;-69
2024/01/15 10:45:28;;;;;;;4.77;2.70;;;;;;;1.07;100.00;98866.97;5053547;28;20261;-69
2024/01/15 10:47:58;;;;;;;8.13;3.20;;;;;;;1.13;100.00;98874.28;5056248;28;20233;-70
2024/01/15 10:50:27;;;;;;;7.60;2.73;;;;;;;1.09;100.00;98867.66;5056323;28;20193;-70
2024/01/15 10:52:56;;;;;;;8.07;3.00;;;;;;;1.04;100.00;98864.63;5056138;28;20317;-69
2024/01/15 10:55:28;;;;;;;8.93;3.80;;;;;;;1.07;100.00;98871.41;5056183;28;20233;-70
2024/01/15 10:57:57;;;;;;;5.97;2.97;;;;;;;1.10;100.00;98865.88;5056137;28;20278;-69
2024/01/15 11:00:27;;;;;;;10.33;6.57;;;;;;;1.14;100.00;98864.56;5055837;28;20206;-66
2024/01/15 11:02:57;;;;;;;6.10;2.53;;;;;;;1.16;100.00;98867.91;5055974;28;20268;-74
2024/01/15 11:05:26;;;;;;;5.60;3.30;;;;;;;1.18;100.00;98871.22;5055549;28;20790;-74
2024/01/15 11:07:57;;;;;;;9.63;2.90;;;;;;;1.20;100.00;98869.28;5055915;28;20296;-74
2024/01/15 11:10:46;;;;;;;8.07;2.87;;;;;;;1.22;100.00;98865.50;5055445;28;20644;-73
2024/01/15 11:13:21;;;;;;;9.53;2.93;;;;;;;1.24;100.00;98862.72;5056053;28;20222;-73
2024/01/15 11:16:03;;;;;;;6.17;2.57;;;;;;;1.25;100.00;98865.22;5055538;28;20228;-74
2024/01/15 11:18:34;;;;;;;7.00;2.90;;;;;;;1.28;100.00;98857.00;5055929;28;20691;-74
2024/01/15 11:21:25;;;;;;;6.00;2.50;;;;;;;1.31;100.00;98872.53;5055472;28;20196;-74
2024/01/15 11:23:56;;;;;;;6.03;2.50;;;;;;;1.29;100.00;98876.28;5055648;28;20660;-73
2024/01/15 11:26:35;;;;;;;8.23;2.43;;;;;;;1.21;100.00;98866.47;5055279;28;20676;-73
2024/01/15 11:29:05;;;;;;;7.83;2.77;;;;;;;1.19;100.00;98863.16;5055297;28;20198;-74
2024/01/15 11:31:59;;;;;;;12.13;2.80;;;;;;;1.22;100.00;98862.88;5055514;28;20589;-74
2024/01/15 11:34:54;;;;;;;8.43;2.53;;;;;;;1.26;100.00;98858.13;5049484;28;20214;-74
2024/01/15 11:37:25;;;;;;;9.53;3.10;;;;;;;1.31;100.00;98856.72;5055418;28;20190;-73
2024/01/15 11:39:55;;;;;;;6.33;2.47;;;;;;;1.32;100.00;98858.38;5055286;28;20303;-74